createdAt,value
2023-03-02T00:01:09.986Z,100.00
2023-03-02T00:03:39.728Z,100.00
2023-03-02T00:06:08.124Z,100.00
2023-03-02T00:08:37.578Z,100.00
2023-03-02T00:11:05.982Z,100.00
2023-03-02T00:13:37.480Z,100.00
2023-03-02T00:16:06.093Z,100.00
2023-03-02T00:18:34.390Z,100.00
2023-03-02T00:21:02.634Z,100.00
2023-03-02T00:23:31.444Z,100.00
2023-03-02T00:26:03.082Z,100.00
2023-03-02T00:28:33.427Z,100.00
2023-03-02T00:31:04.294Z,100.00
2023-03-02T00:33:37.227Z,100.00
2023-03-02T00:36:05.751Z,100.00
2023-03-02T00:38:34.299Z,100.00
2023-03-02T00:41:02.757Z,100.00
2023-03-02T00:43:31.874Z,100.00
2023-03-02T00:46:00.548Z,100.00
2023-03-02T00:48:29.292Z,100.00
2023-03-02T00:51:00.525Z,100.00
2023-03-02T00:53:33.779Z,100.00
2023-03-02T00:56:03.315Z,100.00
2023-03-02T00:58:32.790Z,100.00
2023-03-02T01:01:07.106Z,100.00
2023-03-02T01:03:36.672Z,100.00
2023-03-02T01:06:13.660Z,100.00
2023-03-02T01:08:42.958Z,100.00
2023-03-02T01:11:15.172Z,100.00
2023-03-02T01:13:43.943Z,100.00
2023-03-02T01:16:12.243Z,100.00
2023-03-02T01:18:44.821Z,100.00
2023-03-02T01:21:13.768Z,100.00
2023-03-02T01:23:42.688Z,100.00
2023-03-02T01:26:11.522Z,100.00
2023-03-02T01:28:40.364Z,100.00
2023-03-02T01:31:10.513Z,100.00
2023-03-02T01:33:39.995Z,100.00
2023-03-02T01:36:13.069Z,100.00
2023-03-02T01:38:41.563Z,100.00
2023-03-02T01:41:10.168Z,100.00
2023-03-02T01:43:38.504Z,100.00
2023-03-02T01:46:25.452Z,100.00
2023-03-02T01:49:03.501Z,100.00
2023-03-02T01:51:44.329Z,100.00
2023-03-02T01:54:17.436Z,100.00
2023-03-02T01:56:45.825Z,100.00
2023-03-02T01:59:14.674Z,100.00
2023-03-02T02:01:43.595Z,100.00
2023-03-02T02:04:11.969Z,100.00
2023-03-02T02:06:42.971Z,100.00
2023-03-02T02:09:12.793Z,100.00
2023-03-02T02:11:42.617Z,100.00
2023-03-02T02:14:12.141Z,100.00
2023-03-02T02:16:41.745Z,100.00
2023-03-02T02:19:15.759Z,100.00
2023-03-02T02:21:44.243Z,100.00
2023-03-02T02:24:18.805Z,100.00
2023-03-02T02:26:49.139Z,100.00
2023-03-02T02:29:22.912Z,100.00
2023-03-02T02:32:06.982Z,100.00
2023-03-02T02:34:39.876Z,100.00
2023-03-02T02:37:20.559Z,100.00
2023-03-02T02:39:50.269Z,100.00
2023-03-02T02:42:20.226Z,100.00
2023-03-02T02:44:49.135Z,100.00
2023-03-02T02:47:20.869Z,100.00
2023-03-02T02:49:50.059Z,100.00
2023-03-02T02:52:19.972Z,100.00
2023-03-02T02:54:51.131Z,100.00
2023-03-02T02:57:19.708Z,100.00
2023-03-02T02:59:48.624Z,100.00
2023-03-02T03:02:20.960Z,100.00
2023-03-02T03:04:49.489Z,100.00
2023-03-02T03:07:22.001Z,100.00
2023-03-02T03:10:11.615Z,100.00
2023-03-02T03:12:43.523Z,100.00
2023-03-02T03:15:12.051Z,100.00
2023-03-02T03:17:41.131Z,100.00
2023-03-02T03:20:09.710Z,100.00
2023-03-02T03:22:41.181Z,100.00
2023-03-02T03:25:15.631Z,100.00
2023-03-02T03:27:46.707Z,100.00
2023-03-02T03:30:17.921Z,100.00
2023-03-02T03:32:47.558Z,100.00
2023-03-02T03:35:16.683Z,100.00
2023-03-02T03:37:45.962Z,100.00
2023-03-02T03:40:16.265Z,100.00
2023-03-02T03:42:46.835Z,100.00
2023-03-02T03:45:15.442Z,100.00
2023-03-02T03:47:45.044Z,100.00
2023-03-02T03:50:13.566Z,100.00
2023-03-02T03:52:42.548Z,100.00
2023-03-02T03:55:18.337Z,100.00
2023-03-02T03:57:47.398Z,100.00
2023-03-02T04:00:17.440Z,100.00
2023-03-02T04:02:51.513Z,100.00
2023-03-02T04:05:20.712Z,100.00
2023-03-02T04:07:52.158Z,100.00
2023-03-02T04:10:21.464Z,100.00
2023-03-02T04:12:55.959Z,100.00
2023-03-02T04:15:25.936Z,100.00
2023-03-02T04:17:54.454Z,100.00
2023-03-02T04:20:24.133Z,100.00
2023-03-02T04:22:56.377Z,100.00
2023-03-02T04:25:25.655Z,100.00
2023-03-02T04:27:57.744Z,100.00
2023-03-02T04:30:29.660Z,100.00
2023-03-02T04:32:59.289Z,100.00
2023-03-02T04:35:29.922Z,100.00
2023-03-02T04:37:59.230Z,100.00
2023-03-02T04:40:27.871Z,100.00
2023-03-02T04:42:56.098Z,100.00
2023-03-02T04:45:24.401Z,100.00
2023-03-02T04:47:54.593Z,100.00
2023-03-02T04:50:26.195Z,100.00
2023-03-02T04:52:57.002Z,100.00
2023-03-02T04:55:25.931Z,100.00
2023-03-02T04:57:54.137Z,100.00
2023-03-02T05:00:22.540Z,100.00
2023-03-02T05:02:51.250Z,100.00
2023-03-02T05:05:21.876Z,100.00
2023-03-02T05:07:50.670Z,100.00
2023-03-02T05:10:20.243Z,100.00
2023-03-02T05:12:58.453Z,100.00
2023-03-02T05:15:27.693Z,100.00
2023-03-02T05:17:56.654Z,100.00
2023-03-02T05:20:30.477Z,100.00
2023-03-02T05:23:00.591Z,100.00
2023-03-02T05:25:30.023Z,100.00
2023-03-02T05:28:00.718Z,100.00
2023-03-02T05:30:29.407Z,100.00
2023-03-02T05:32:57.791Z,100.00
2023-03-02T05:35:27.517Z,95.90
2023-03-02T05:37:55.983Z,74.69
2023-03-02T05:40:24.172Z,69.21
2023-03-02T05:42:52.446Z,63.65
2023-03-02T05:45:24.727Z,61.90
2023-03-02T05:47:53.049Z,58.63
2023-03-02T05:50:21.398Z,56.56
2023-03-02T05:52:50.656Z,54.18
2023-03-02T05:55:19.106Z,51.08
2023-03-02T05:57:49.464Z,48.84
2023-03-02T06:00:18.944Z,48.25
2023-03-02T06:02:47.550Z,47.06
2023-03-02T06:05:17.088Z,45.57
2023-03-02T06:07:45.472Z,44.74
2023-03-02T06:10:14.049Z,43.96
2023-03-02T06:12:42.394Z,43.01
2023-03-02T06:15:11.507Z,42.05
2023-03-02T06:17:40.457Z,41.38
2023-03-02T06:20:12.542Z,40.39
2023-03-02T06:22:42.211Z,39.69
2023-03-02T06:25:10.595Z,39.14
2023-03-02T06:27:43.028Z,38.51
2023-03-02T06:30:12.099Z,37.48
2023-03-02T06:32:40.531Z,37.71
2023-03-02T06:35:09.806Z,37.14
2023-03-02T06:37:38.159Z,36.32
2023-03-02T06:40:14.137Z,35.63
2023-03-02T06:42:42.805Z,35.22
2023-03-02T06:45:11.347Z,34.36
2023-03-02T06:47:41.429Z,34.13
2023-03-02T06:50:10.146Z,33.82
2023-03-02T06:52:39.901Z,33.32
2023-03-02T06:55:08.506Z,32.42
2023-03-02T06:57:36.856Z,31.70
2023-03-02T07:00:10.405Z,30.74
2023-03-02T07:02:45.137Z,30.65
2023-03-02T07:05:14.569Z,30.66
2023-03-02T07:07:49.561Z,30.41
2023-03-02T07:10:18.407Z,29.65
2023-03-02T07:12:46.790Z,29.47
2023-03-02T07:15:22.389Z,29.57
2023-03-02T07:17:50.742Z,29.53
2023-03-02T07:20:19.272Z,29.24
2023-03-02T07:22:49.005Z,28.52
2023-03-02T07:25:17.573Z,28.20
2023-03-02T07:27:50.031Z,28.24
2023-03-02T07:30:21.422Z,27.59
2023-03-02T07:32:49.666Z,27.05
2023-03-02T07:35:18.299Z,26.81
2023-03-02T07:37:46.497Z,26.78
2023-03-02T07:40:14.738Z,26.57
2023-03-02T07:42:43.016Z,26.14
2023-03-02T07:45:13.710Z,25.89
2023-03-02T07:47:43.030Z,26.66
2023-03-02T07:50:11.547Z,26.72
2023-03-02T07:52:40.527Z,27.06
2023-03-02T07:55:09.366Z,27.11
2023-03-02T07:57:39.190Z,27.18
2023-03-02T08:00:07.913Z,26.94
2023-03-02T08:02:42.197Z,27.01
2023-03-02T08:05:13.348Z,26.28
2023-03-02T08:07:46.881Z,26.09
2023-03-02T08:10:15.170Z,25.52
2023-03-02T08:12:44.326Z,25.05
2023-03-02T08:15:14.062Z,24.54
2023-03-02T08:17:42.703Z,24.48
2023-03-02T08:20:15.538Z,24.70
2023-03-02T08:22:43.926Z,24.60
2023-03-02T08:25:12.546Z,24.35
2023-03-02T08:27:42.503Z,24.31
2023-03-02T08:30:11.017Z,24.79
2023-03-02T08:32:39.959Z,25.09
2023-03-02T08:35:09.488Z,24.62
2023-03-02T08:37:38.672Z,25.11
2023-03-02T08:40:07.595Z,24.57
2023-03-02T08:42:35.936Z,24.52
2023-03-02T08:45:06.240Z,24.34
2023-03-02T08:47:34.860Z,23.89
2023-03-02T08:50:04.157Z,23.93
2023-03-02T08:52:35.631Z,23.88
2023-03-02T08:55:05.166Z,23.89
2023-03-02T08:57:35.031Z,23.95
2023-03-02T09:00:03.861Z,23.87
2023-03-02T09:02:32.605Z,24.03
2023-03-02T09:05:01.253Z,24.02
2023-03-02T09:07:30.757Z,23.74
2023-03-02T09:10:01.901Z,23.77
2023-03-02T09:12:30.529Z,24.09
2023-03-02T09:14:59.023Z,23.93
2023-03-02T09:17:28.364Z,23.96
2023-03-02T09:19:56.919Z,24.47
2023-03-02T09:22:25.300Z,24.54
2023-03-02T09:24:53.478Z,24.68
2023-03-02T09:27:21.822Z,24.73
2023-03-02T09:29:50.064Z,25.08
2023-03-02T09:32:18.742Z,25.52
2023-03-02T09:34:47.141Z,25.65
2023-03-02T09:37:15.423Z,25.40
2023-03-02T09:39:43.716Z,25.01
2023-03-02T09:42:19.779Z,24.70
2023-03-02T09:44:54.092Z,24.54
2023-03-02T09:47:35.227Z,24.91
2023-03-02T09:50:24.295Z,25.54
2023-03-02T09:52:52.558Z,26.11
2023-03-02T09:55:27.692Z,26.02
2023-03-02T09:58:02.527Z,26.30
2023-03-02T10:00:32.391Z,26.80
2023-03-02T10:03:14.726Z,26.83
2023-03-02T10:05:44.783Z,26.80
2023-03-02T10:08:18.903Z,27.47
2023-03-02T10:10:51.676Z,27.49
2023-03-02T10:13:25.505Z,27.43
2023-03-02T10:16:14.222Z,27.55
2023-03-02T10:18:44.308Z,27.62
2023-03-02T10:21:22.493Z,27.67
2023-03-02T10:24:00.813Z,27.27
2023-03-02T10:26:42.837Z,27.70
2023-03-02T10:29:23.445Z,27.76
2023-03-02T10:31:58.658Z,27.77
2023-03-02T10:34:28.413Z,27.61
2023-03-02T10:36:56.811Z,27.73
2023-03-02T10:39:25.114Z,28.09
2023-03-02T10:41:56.590Z,28.25
2023-03-02T10:44:27.910Z,28.36
2023-03-02T10:46:57.438Z,28.68
2023-03-02T10:49:32.663Z,29.41
2023-03-02T10:52:02.704Z,29.95
2023-03-02T10:54:32.269Z,30.00
2023-03-02T10:57:02.692Z,30.31
2023-03-02T10:59:46.612Z,30.72
2023-03-02T11:02:23.803Z,30.84
2023-03-02T11:04:57.639Z,31.13
2023-03-02T11:07:27.982Z,30.99
2023-03-02T11:09:58.465Z,31.05
2023-03-02T11:12:26.953Z,31.38
2023-03-02T11:15:16.296Z,31.25
2023-03-02T11:17:44.923Z,31.30
2023-03-02T11:20:18.004Z,31.52
2023-03-02T11:22:52.468Z,31.72
2023-03-02T11:25:32.798Z,31.85
2023-03-02T11:28:03.480Z,32.72
2023-03-02T11:30:32.185Z,32.92
2023-03-02T11:33:15.129Z,32.98
2023-03-02T11:35:51.787Z,33.30
2023-03-02T11:38:33.012Z,33.66
2023-03-02T11:41:16.575Z,33.99
2023-03-02T11:43:45.169Z,34.58
2023-03-02T11:46:21.561Z,34.75
2023-03-02T11:48:51.066Z,35.02
2023-03-02T11:51:19.272Z,35.32
2023-03-02T11:53:52.318Z,35.72
2023-03-02T11:56:20.611Z,36.15
2023-03-02T11:58:50.214Z,36.25
2023-03-02T12:01:20.011Z,36.79
2023-03-02T12:03:48.247Z,37.16
2023-03-02T12:06:25.316Z,37.87
2023-03-02T12:09:07.876Z,38.53
2023-03-02T12:11:38.994Z,38.93
2023-03-02T12:14:43.989Z,39.34
2023-03-02T12:17:27.657Z,39.64
2023-03-02T12:20:07.496Z,39.94
2023-03-02T12:22:37.778Z,40.45
2023-03-02T12:25:26.557Z,41.13
2023-03-02T12:27:56.672Z,41.96
2023-03-02T12:30:26.864Z,42.97
2023-03-02T12:33:10.378Z,43.65
2023-03-02T12:35:38.696Z,44.41
2023-03-02T12:38:14.690Z,44.79
2023-03-02T12:40:58.611Z,45.50
2023-03-02T12:43:27.331Z,45.72
2023-03-02T12:46:15.043Z,46.09
2023-03-02T12:48:46.601Z,46.11
2023-03-02T12:51:17.479Z,46.09
2023-03-02T12:53:45.988Z,46.58
2023-03-02T12:56:24.881Z,46.78
2023-03-02T12:58:54.133Z,47.06
2023-03-02T13:01:23.702Z,47.22
2023-03-02T13:03:53.097Z,47.39
2023-03-02T13:06:23.288Z,47.64
2023-03-02T13:08:54.295Z,47.93
2023-03-02T13:11:31.306Z,48.11
2023-03-02T13:14:03.877Z,48.44
2023-03-02T13:16:33.573Z,48.55
2023-03-02T13:19:02.883Z,48.54
2023-03-02T13:21:32.897Z,48.62
2023-03-02T13:24:01.432Z,48.86
2023-03-02T13:26:36.607Z,49.22
2023-03-02T13:29:32.147Z,49.30
2023-03-02T13:32:20.116Z,49.17
2023-03-02T13:34:49.946Z,49.62
2023-03-02T13:37:22.870Z,50.01
2023-03-02T13:39:54.723Z,50.13
2023-03-02T13:42:27.157Z,50.23
2023-03-02T13:44:55.359Z,50.47
2023-03-02T13:47:24.124Z,50.31
2023-03-02T13:49:53.197Z,50.16
2023-03-02T13:52:21.603Z,50.44
2023-03-02T13:54:51.236Z,50.53
2023-03-02T13:57:22.202Z,50.78
2023-03-02T13:59:50.516Z,50.91
2023-03-02T14:02:25.987Z,51.03
2023-03-02T14:04:54.606Z,51.24
2023-03-02T14:07:23.003Z,51.51
2023-03-02T14:09:51.371Z,51.67
2023-03-02T14:12:24.360Z,51.85
2023-03-02T14:14:52.751Z,52.22
2023-03-02T14:17:22.263Z,52.37
2023-03-02T14:19:53.056Z,52.48
2023-03-02T14:22:21.715Z,52.74
2023-03-02T14:24:52.312Z,52.95
2023-03-02T14:27:20.974Z,53.26
2023-03-02T14:29:49.481Z,53.26
2023-03-02T14:32:18.145Z,53.43
2023-03-02T14:34:46.775Z,53.83
2023-03-02T14:37:15.638Z,53.88
2023-03-02T14:39:47.397Z,54.13
2023-03-02T14:42:16.725Z,54.38
2023-03-02T14:44:49.410Z,54.81
2023-03-02T14:47:19.855Z,55.21
2023-03-02T14:49:49.523Z,55.49
2023-03-02T14:52:21.321Z,55.91
2023-03-02T14:54:51.832Z,56.44
2023-03-02T14:57:25.457Z,56.81
2023-03-02T14:59:53.930Z,57.28
2023-03-02T15:02:26.197Z,57.59
2023-03-02T15:05:12.309Z,57.97
2023-03-02T15:07:44.308Z,58.61
2023-03-02T15:10:18.100Z,58.93
2023-03-02T15:12:46.509Z,59.40
2023-03-02T15:15:16.708Z,59.91
2023-03-02T15:17:45.583Z,60.42
2023-03-02T15:20:17.201Z,60.75
2023-03-02T15:22:47.167Z,61.35
2023-03-02T15:25:15.484Z,61.77
2023-03-02T15:27:44.049Z,62.10
2023-03-02T15:30:12.788Z,62.59
2023-03-02T15:32:41.418Z,62.94
2023-03-02T15:35:10.028Z,63.41
2023-03-02T15:37:39.465Z,63.94
2023-03-02T15:40:08.409Z,64.40
2023-03-02T15:42:37.401Z,64.85
2023-03-02T15:45:06.964Z,65.31
2023-03-02T15:47:37.680Z,65.78
2023-03-02T15:50:06.164Z,66.16
2023-03-02T15:52:34.441Z,66.67
2023-03-02T15:55:03.061Z,67.14
2023-03-02T15:57:31.403Z,67.67
2023-03-02T16:00:04.345Z,68.06
2023-03-02T16:02:35.921Z,68.54
2023-03-02T16:05:08.743Z,68.89
2023-03-02T16:07:39.565Z,69.34
2023-03-02T16:10:08.505Z,69.82
2023-03-02T16:12:37.116Z,70.25
2023-03-02T16:15:05.618Z,70.77
2023-03-02T16:17:33.998Z,71.21
2023-03-02T16:20:02.715Z,71.76
2023-03-02T16:22:31.124Z,72.22
2023-03-02T16:25:00.886Z,72.63
2023-03-02T16:27:30.681Z,73.09
2023-03-02T16:29:58.957Z,73.49
2023-03-02T16:32:27.664Z,73.93
2023-03-02T16:34:55.965Z,74.36
2023-03-02T16:37:24.181Z,74.78
2023-03-02T16:39:52.549Z,75.30
2023-03-02T16:42:22.769Z,75.80
2023-03-02T16:44:51.220Z,76.39
2023-03-02T16:47:19.468Z,76.89
2023-03-02T16:49:48.798Z,77.35
2023-03-02T16:52:17.721Z,77.63
2023-03-02T16:54:46.679Z,78.06
2023-03-02T16:57:15.111Z,78.46
2023-03-02T16:59:43.407Z,78.68
2023-03-02T17:02:11.932Z,79.05
2023-03-02T17:04:42.835Z,79.40
2023-03-02T17:07:11.343Z,79.78
2023-03-02T17:09:42.413Z,80.26
2023-03-02T17:12:11.534Z,80.60
2023-03-02T17:14:40.930Z,80.83
2023-03-02T17:17:11.284Z,80.96
2023-03-02T17:19:40.321Z,81.26
2023-03-02T17:22:08.589Z,81.53
2023-03-02T17:24:36.908Z,81.83
2023-03-02T17:27:13.131Z,82.15
2023-03-02T17:29:48.899Z,82.51
2023-03-02T17:32:17.422Z,82.92
2023-03-02T17:34:45.676Z,83.61
2023-03-02T17:37:14.344Z,86.57
2023-03-02T17:39:42.969Z,88.03
2023-03-02T17:42:11.645Z,87.66
2023-03-02T17:44:40.498Z,87.58
2023-03-02T17:47:11.350Z,87.26
2023-03-02T17:49:40.846Z,87.04
2023-03-02T17:52:09.857Z,87.33
2023-03-02T17:54:38.581Z,87.63
2023-03-02T17:57:07.182Z,87.84
2023-03-02T17:59:36.199Z,87.88
2023-03-02T18:02:04.587Z,88.08
2023-03-02T18:04:34.291Z,88.40
2023-03-02T18:07:03.161Z,88.74
2023-03-02T18:09:31.822Z,88.96
2023-03-02T18:12:01.250Z,89.30
2023-03-02T18:14:30.786Z,89.59
2023-03-02T18:17:05.071Z,90.23
2023-03-02T18:19:33.600Z,90.57
2023-03-02T18:22:02.048Z,90.83
2023-03-02T18:24:30.460Z,91.26
2023-03-02T18:26:59.286Z,91.48
2023-03-02T18:29:27.540Z,91.69
2023-03-02T18:31:56.144Z,91.76
2023-03-02T18:34:24.425Z,92.01
2023-03-02T18:36:52.887Z,92.00
2023-03-02T18:39:21.312Z,92.37
2023-03-02T18:41:49.858Z,92.62
2023-03-02T18:44:18.922Z,93.17
2023-03-02T18:46:47.184Z,93.43
2023-03-02T18:49:15.449Z,93.99
2023-03-02T18:51:44.123Z,94.20
2023-03-02T18:54:13.192Z,94.57
2023-03-02T18:56:41.562Z,94.97
2023-03-02T18:59:09.932Z,97.98
2023-03-02T19:01:38.380Z,98.90
2023-03-02T19:04:06.765Z,99.61
2023-03-02T19:06:36.468Z,99.81
2023-03-02T19:09:05.307Z,100.00
2023-03-02T19:11:33.526Z,100.00
2023-03-02T19:14:02.021Z,100.00
2023-03-02T19:16:31.015Z,100.00
2023-03-02T19:18:59.312Z,100.00
2023-03-02T19:21:27.565Z,100.00
2023-03-02T19:23:56.001Z,100.00
2023-03-02T19:26:24.345Z,100.00
2023-03-02T19:28:52.724Z,100.00
2023-03-02T19:31:21.644Z,100.00
2023-03-02T19:33:49.854Z,100.00
2023-03-02T19:36:18.027Z,100.00
2023-03-02T19:38:46.715Z,100.00
2023-03-02T19:41:17.410Z,100.00
2023-03-02T19:43:46.336Z,100.00
2023-03-02T19:46:15.308Z,100.00
2023-03-02T19:48:43.626Z,100.00
2023-03-02T19:51:12.382Z,100.00
2023-03-02T19:53:41.549Z,100.00
2023-03-02T19:56:12.925Z,100.00
2023-03-02T19:58:47.511Z,100.00
2023-03-02T20:01:17.343Z,100.00
2023-03-02T20:03:48.328Z,100.00
2023-03-02T20:06:16.813Z,100.00
2023-03-02T20:08:45.168Z,100.00
2023-03-02T20:11:16.563Z,100.00
2023-03-02T20:13:45.517Z,100.00
2023-03-02T20:16:13.827Z,100.00
2023-03-02T20:18:43.387Z,100.00
2023-03-02T20:21:11.712Z,100.00
2023-03-02T20:23:40.048Z,100.00
2023-03-02T20:26:08.928Z,100.00
2023-03-02T20:28:37.509Z,100.00
2023-03-02T20:31:09.054Z,100.00
2023-03-02T20:33:41.942Z,100.00
2023-03-02T20:36:15.406Z,100.00
2023-03-02T20:38:45.619Z,100.00
2023-03-02T20:41:14.248Z,100.00
2023-03-02T20:43:44.464Z,100.00
2023-03-02T20:46:13.596Z,100.00
2023-03-02T20:48:42.665Z,100.00
2023-03-02T20:51:10.997Z,100.00
2023-03-02T20:53:47.218Z,100.00
2023-03-02T20:56:15.895Z,100.00
2023-03-02T20:58:44.494Z,100.00
2023-03-02T21:01:12.995Z,100.00
2023-03-02T21:03:41.477Z,100.00
2023-03-02T21:06:09.661Z,100.00
2023-03-02T21:08:39.258Z,100.00
2023-03-02T21:11:12.842Z,100.00
2023-03-02T21:13:45.835Z,100.00
2023-03-02T21:16:21.179Z,100.00
2023-03-02T21:18:50.100Z,100.00
2023-03-02T21:21:21.499Z,100.00
2023-03-02T21:23:51.453Z,100.00
2023-03-02T21:26:20.673Z,100.00
2023-03-02T21:28:48.962Z,100.00
2023-03-02T21:31:18.523Z,100.00
2023-03-02T21:33:47.103Z,100.00
2023-03-02T21:36:22.149Z,100.00
2023-03-02T21:38:51.284Z,100.00
2023-03-02T21:41:19.567Z,100.00
2023-03-02T21:43:48.722Z,100.00
2023-03-02T21:46:18.079Z,100.00
2023-03-02T21:48:47.894Z,100.00
2023-03-02T21:51:16.586Z,100.00
2023-03-02T21:53:44.890Z,100.00
2023-03-02T21:56:16.405Z,100.00
2023-03-02T21:58:47.430Z,100.00
2023-03-02T22:01:15.888Z,100.00
2023-03-02T22:03:45.125Z,100.00
2023-03-02T22:06:17.495Z,100.00
2023-03-02T22:08:45.738Z,100.00
2023-03-02T22:11:16.122Z,100.00
2023-03-02T22:13:44.666Z,100.00
2023-03-02T22:16:13.908Z,100.00
2023-03-02T22:18:42.756Z,100.00
2023-03-02T22:21:23.282Z,100.00
2023-03-02T22:24:04.057Z,100.00
2023-03-02T22:26:35.382Z,100.00
2023-03-02T22:29:12.910Z,100.00
2023-03-02T22:31:43.230Z,100.00
2023-03-02T22:34:30.225Z,100.00
2023-03-02T22:36:59.533Z,100.00
2023-03-02T22:39:29.108Z,100.00
2023-03-02T22:42:02.288Z,100.00
2023-03-02T22:44:30.599Z,100.00
2023-03-02T22:46:59.124Z,100.00
2023-03-02T22:49:27.608Z,100.00
2023-03-02T22:52:01.657Z,100.00
2023-03-02T22:54:37.387Z,100.00
2023-03-02T22:57:24.730Z,100.00
2023-03-02T22:59:53.196Z,100.00
2023-03-02T23:02:25.402Z,100.00
2023-03-02T23:04:53.965Z,100.00
2023-03-02T23:07:22.423Z,100.00
2023-03-02T23:09:51.266Z,100.00
2023-03-02T23:12:23.401Z,100.00
2023-03-02T23:14:57.997Z,100.00
2023-03-02T23:17:39.322Z,100.00
2023-03-02T23:20:10.235Z,100.00
2023-03-02T23:22:39.595Z,100.00
2023-03-02T23:25:09.000Z,100.00
2023-03-02T23:27:38.625Z,100.00
2023-03-02T23:30:07.000Z,100.00
2023-03-02T23:32:36.798Z,100.00
2023-03-02T23:35:05.352Z,100.00
2023-03-02T23:37:37.918Z,100.00
2023-03-02T23:40:06.552Z,100.00
2023-03-02T23:42:34.766Z,100.00
2023-03-02T23:45:03.118Z,100.00
2023-03-02T23:47:36.960Z,100.00
2023-03-02T23:50:06.607Z,100.00
2023-03-02T23:52:34.969Z,100.00
2023-03-02T23:55:03.623Z,100.00
2023-03-02T23:57:32.108Z,100.00
